Time;durP1;ratioP1;P1;durP2;ratioP2;P2;SDS_P1;SDS_P2;PMS_P1;PMS_P2;Temp;Humidity;BMP_temperature;BMP_pressure;BME280_temperature;BME280_humidity;BME280_pressure;Samples;Min_cycle;Max_cycle;Signal;HPM_P1;HPM_P2
2021/12/01 00:00:48;;;;;;;114.60;29.08;;;7.80;99.90;;;;;;5069385;28;20106;-37
2021/12/01 00:03:14;;;;;;;92.30;26.70;;;7.90;99.90;;;;;;5069487;28;20052;-37
2021/12/01 00:05:40;;;;;;;118.28;29.02;;;7.90;99.90;;;;;;5069292;28;20444;-37
2021/12/01 00:08:06;;;;;;;95.72;27.40;;;8.00;99.90;;;;;;5069708;28;20148;-37
2021/12/01 00:10:34;;;;;;;86.35;27.92;;;8.10;99.90;;;;;;5069255;28;20043;-37
2021/12/01 00:13:02;;;;;;;104.75;27.13;;;9.00;99.90;;;;;;5069555;28;20036;-38
2021/12/01 00:15:28;;;;;;;94.65;28.65;;;8.10;99.90;;;;;;5068944;28;20041;-37
2021/12/01 00:17:53;;;;;;;87.13;28.90;;;8.40;99.90;;;;;;5069092;28;20049;-37
2021/12/01 00:20:20;;;;;;;94.35;29.10;;;8.30;99.90;;;;;;5069164;28;20417;-37
2021/12/01 00:22:46;;;;;;;96.40;29.70;;;8.40;99.90;;;;;;5051236;28;20056;-37
2021/12/01 00:25:16;;;;;;;104.40;32.13;;;8.40;99.90;;;;;;5069498;28;20397;-37
2021/12/01 00:27:42;;;;;;;106.20;32.40;;;8.30;99.90;;;;;;5068963;28;20075;-37
2021/12/01 00:30:09;;;;;;;112.40;35.45;;;8.40;99.90;;;;;;5069182;28;20494;-37
2021/12/01 00:32:35;;;;;;;105.95;35.35;;;8.50;99.90;;;;;;5069405;28;20418;-37
2021/12/01 00:35:04;;;;;;;76.82;31.67;;;8.40;99.90;;;;;;5069195;28;20447;-37
2021/12/01 00:37:30;;;;;;;89.35;34.25;;;8.50;99.90;;;;;;5069184;28;20032;-37
2021/12/01 00:39:56;;;;;;;98.32;36.42;;;8.70;99.90;;;;;;5068961;28;20083;-37
2021/12/01 00:42:21;;;;;;;100.78;36.35;;;8.40;99.90;;;;;;5068800;28;20040;-37
2021/12/01 00:44:55;;;;;;;86.28;32.85;;;9.00;99.90;;;;;;5068740;28;20044;-37
2021/12/01 00:47:23;;;;;;;90.53;36.53;;;8.60;99.90;;;;;;5050678;28;20054;-37
2021/12/01 00:49:49;;;;;;;90.38;35.67;;;9.40;99.90;;;;;;5048513;28;20506;-37
2021/12/01 00:52:15;;;;;;;92.80;37.28;;;8.80;99.90;;;;;;5048888;28;20127;-37
2021/12/01 00:54:40;;;;;;;94.10;38.70;;;8.70;99.90;;;;;;5030707;28;20335;-37
2021/12/01 00:57:06;;;;;;;93.55;38.60;;;8.70;99.90;;;;;;5048903;28;20049;-37
2021/12/01 00:59:34;;;;;;;91.68;39.17;;;8.70;99.90;;;;;;5064540;28;20075;-37
2021/12/01 01:02:00;;;;;;;89.13;37.72;;;9.00;99.90;;;;;;5068789;28;20356;-37
2021/12/01 01:04:25;;;;;;;94.78;38.50;;;9.00;99.90;;;;;;5068466;28;20041;-37
2021/12/01 01:06:51;;;;;;;95.70;37.42;;;9.70;99.90;;;;;;5068089;28;20044;-37
2021/12/01 01:09:17;;;;;;;91.00;37.42;;;8.50;99.90;;;;;;5068819;28;20052;-37
2021/12/01 01:17:19;;;;;;;70.68;27.23;;;8.70;99.90;;;;;;5067677;28;20560;-37
2021/12/01 01:19:45;;;;;;;72.18;35.95;;;8.70;99.90;;;;;;5069795;28;20493;-37
2021/12/01 01:22:11;;;;;;;80.32;35.55;;;8.60;99.90;;;;;;5068328;28;20076;-37
2021/12/01 01:24:37;;;;;;;72.35;34.72;;;8.70;99.90;;;;;;5069244;28;20048;-37
2021/12/01 01:27:03;;;;;;;79.53;34.08;;;8.60;99.90;;;;;;5069336;28;20086;-37
2021/12/01 01:29:34;;;;;;;76.55;33.90;;;8.70;99.90;;;;;;5069374;28;20083;-37
2021/12/01 01:32:00;;;;;;;78.80;34.33;;;8.70;99.90;;;;;;5069560;28;20086;-37
2021/12/01 01:34:26;;;;;;;73.63;34.67;;;9.00;99.90;;;;;;5069447;28;20098;-37
2021/12/01 01:36:53;;;;;;;60.33;28.23;;;8.70;99.90;;;;;;5068499;28;20051;-37
2021/12/01 01:39:20;;;;;;;69.20;29.52;;;8.90;99.90;;;;;;5068913;28;20040;-37
2021/12/01 01:41:45;;;;;;;60.97;28.90;;;8.80;99.90;;;;;;5050467;28;20405;-37
2021/12/01 01:44:11;;;;;;;61.72;27.75;;;8.80;99.90;;;;;;5068917;28;20394;-37
2021/12/01 01:46:39;;;;;;;52.47;24.30;;;8.50;99.90;;;;;;5068769;28;20044;-37
2021/12/01 01:49:17;;;;;;;71.95;30.05;;;8.60;99.90;;;;;;5068948;28;20052;-37
2021/12/01 01:51:43;;;;;;;67.18;27.00;;;9.20;99.90;;;;;;5068836;28;20075;-37
2021/12/01 01:54:10;;;;;;;56.25;23.48;;;8.80;99.90;;;;;;5069159;28;20047;-37
2021/12/01 01:56:36;;;;;;;53.35;21.88;;;9.00;99.90;;;;;;5068584;28;20527;-37
2021/12/01 01:59:03;;;;;;;65.22;26.00;;;8.80;99.90;;;;;;5068648;28;20040;-37
2021/12/01 02:03:55;;;;;;;50.55;21.25;;;8.80;99.90;;;;;;5068402;28;20107;-38
2021/12/01 02:06:25;;;;;;;52.40;22.90;;;8.80;99.90;;;;;;5050382;28;20059;-37
2021/12/01 02:08:52;;;;;;;45.53;20.95;;;8.70;99.90;;;;;;5067773;28;20513;-37
2021/12/01 02:11:20;;;;;;;51.60;21.30;;;8.60;99.90;;;;;;5068524;28;20486;-37
2021/12/01 02:13:46;;;;;;;61.20;23.50;;;9.10;99.90;;;;;;5068468;28;20055;-37
2021/12/01 02:16:13;;;;;;;58.65;22.33;;;9.00;99.90;;;;;;5068491;28;20040;-37
2021/12/01 02:18:40;;;;;;;52.08;19.92;;;8.80;99.90;;;;;;5068357;28;20053;-37
2021/12/01 02:21:11;;;;;;;49.03;18.92;;;8.90;99.90;;;;;;5068540;28;20044;-37
2021/12/01 02:23:42;;;;;;;41.17;16.50;;;8.80;99.90;;;;;;5068821;28;20434;-37
2021/12/01 02:26:09;;;;;;;43.85;16.35;;;8.80;99.90;;;;;;5064098;28;20283;-37
2021/12/01 02:28:36;;;;;;;48.08;17.42;;;8.60;99.90;;;;;;5050757;28;20501;-37
2021/12/01 02:31:03;;;;;;;37.80;14.93;;;8.90;99.90;;;;;;5068498;28;20459;-38
2021/12/01 02:33:29;;;;;;;33.50;13.95;;;8.70;99.90;;;;;;5068879;28;20083;-38
2021/12/01 02:35:55;;;;;;;44.22;16.15;;;8.90;99.90;;;;;;5068867;28;20068;-38
2021/12/01 02:38:22;;;;;;;34.85;12.95;;;8.80;99.90;;;;;;5068322;28;20032;-38
2021/12/01 02:40:50;;;;;;;30.73;12.07;;;8.90;99.90;;;;;;5068437;28;20044;-38
2021/12/01 02:43:16;;;;;;;31.17;11.20;;;9.00;99.90;;;;;;5068522;28;20046;-38
2021/12/01 02:45:43;;;;;;;34.28;11.93;;;8.70;99.90;;;;;;5068635;28;20037;-37
2021/12/01 02:48:13;;;;;;;31.60;11.60;;;9.00;99.90;;;;;;5068177;28;20045;-37
2021/12/01 02:50:41;;;;;;;26.30;9.88;;;8.90;99.90;;;;;;5068333;28;20117;-37
2021/12/01 02:53:07;;;;;;;17.15;7.30;;;8.90;99.90;;;;;;5068179;28;20040;-37
2021/12/01 02:55:36;;;;;;;17.75;6.40;;;9.00;99.90;;;;;;5068640;28;20120;-37
2021/12/01 02:58:01;;;;;;;16.63;7.03;;;9.90;99.90;;;;;;5068289;28;20048;-37
2021/12/01 03:00:27;;;;;;;17.98;8.20;;;9.40;99.90;;;;;;5068075;28;20398;-37
2021/12/01 03:02:56;;;;;;;16.85;8.18;;;9.00;99.90;;;;;;5068042;28;20147;-37
2021/12/01 03:05:23;;;;;;;18.10;7.70;;;9.10;99.90;;;;;;5068376;28;20386;-38
2021/12/01 03:07:49;;;;;;;15.70;7.75;;;11.10;99.90;;;;;;5067827;28;20515;-37
2021/12/01 03:10:15;;;;;;;14.02;5.40;;;9.20;99.90;;;;;;5068184;28;20118;-37
2021/12/01 03:12:42;;;;;;;14.23;5.53;;;9.20;99.90;;;;;;5068192;28;20119;-37
2021/12/01 03:15:10;;;;;;;13.38;4.68;;;9.00;99.90;;;;;;5068177;28;20036;-37
2021/12/01 03:17:37;;;;;;;16.02;6.43;;;9.20;99.90;;;;;;5068408;28;20049;-37
2021/12/01 03:20:07;;;;;;;13.73;4.88;;;9.00;99.90;;;;;;5069355;28;20138;-37
2021/12/01 03:22:33;;;;;;;13.00;5.72;;;9.20;99.90;;;;;;5071822;28;20127;-37
2021/12/01 03:24:59;;;;;;;9.65;4.85;;;9.30;99.90;;;;;;5071613;28;20127;-37
2021/12/01 03:27:24;;;;;;;11.43;4.97;;;9.20;99.90;;;;;;5071542;28;20556;-37
2021/12/01 03:29:50;;;;;;;7.95;3.38;;;9.20;99.90;;;;;;5071709;28;20040;-37
2021/12/01 03:32:17;;;;;;;9.20;3.67;;;9.00;99.90;;;;;;5071872;28;20052;-37
2021/12/01 03:34:43;;;;;;;8.00;3.42;;;9.10;99.90;;;;;;5071697;28;20045;-37
2021/12/01 03:37:10;;;;;;;6.88;2.20;;;9.10;99.90;;;;;;5071336;28;20036;-37
2021/12/01 03:39:36;;;;;;;5.63;2.50;;;8.90;99.90;;;;;;5071349;28;20089;-38
2021/12/01 03:42:03;;;;;;;11.50;3.15;;;9.00;99.90;;;;;;5071165;28;20048;-38
2021/12/01 03:44:29;;;;;;;6.20;2.15;;;9.20;99.90;;;;;;5071584;28;20044;-37
2021/12/01 03:46:55;;;;;;;6.10;2.28;;;10.00;99.90;;;;;;5071309;28;20095;-38
2021/12/01 03:49:21;;;;;;;6.10;1.95;;;9.10;99.90;;;;;;5071305;28;20101;-38
2021/12/01 03:51:46;;;;;;;6.95;1.52;;;9.10;99.90;;;;;;5071268;28;20053;-38
2021/12/01 03:54:12;;;;;;;8.30;1.83;;;9.10;99.90;;;;;;5070871;28;20044;-37
2021/12/01 03:56:38;;;;;;;13.10;3.15;;;9.10;99.90;;;;;;5071124;28;20549;-38
2021/12/01 03:59:04;;;;;;;11.40;3.20;;;9.90;99.90;;;;;;5070912;28;20040;-38
2021/12/01 04:01:31;;;;;;;12.23;3.00;;;11.40;99.90;;;;;;5071111;28;20044;-38
2021/12/01 04:03:58;;;;;;;17.38;3.30;;;9.10;99.90;;;;;;5070883;28;20115;-38
2021/12/01 04:06:25;;;;;;;9.40;2.78;;;9.00;99.90;;;;;;5071194;28;20097;-38
2021/12/01 04:08:51;;;;;;;11.20;4.25;;;9.00;99.90;;;;;;5071361;28;20436;-38
2021/12/01 04:11:17;;;;;;;16.17;5.15;;;9.90;99.90;;;;;;5070732;28;20048;-38
2021/12/01 04:13:43;;;;;;;13.32;4.30;;;9.20;99.90;;;;;;5071199;28;20040;-38
2021/12/01 04:16:09;;;;;;;11.98;4.35;;;8.90;99.90;;;;;;5070617;28;20044;-38
2021/12/01 04:18:35;;;;;;;13.07;4.90;;;9.00;99.90;;;;;;5070623;28;20076;-38
2021/12/01 04:21:00;;;;;;;11.15;4.18;;;8.80;99.90;;;;;;5070748;28;20067;-38
2021/12/01 04:23:26;;;;;;;14.13;5.40;;;9.00;99.90;;;;;;5071015;28;20182;-38
2021/12/01 04:25:52;;;;;;;14.65;4.22;;;9.00;99.90;;;;;;5070476;28;20071;-38
2021/12/01 04:28:18;;;;;;;13.02;4.72;;;9.80;99.90;;;;;;5070301;28;20041;-38
2021/12/01 04:30:44;;;;;;;9.57;4.68;;;9.00;99.90;;;;;;5070126;28;20052;-38
2021/12/01 04:33:10;;;;;;;11.10;4.63;;;9.00;99.90;;;;;;5070518;28;20167;-38
2021/12/01 04:35:36;;;;;;;8.82;3.42;;;9.00;99.90;;;;;;5070417;28;20063;-38
2021/12/01 04:38:03;;;;;;;7.95;2.47;;;9.00;99.90;;;;;;5070558;28;20037;-38
2021/12/01 04:40:29;;;;;;;9.32;3.28;;;10.00;99.90;;;;;;5070565;28;20036;-38
2021/12/01 04:42:55;;;;;;;7.47;3.13;;;9.00;99.90;;;;;;5070454;28;20083;-38
2021/12/01 04:45:22;;;;;;;8.07;3.67;;;9.00;99.90;;;;;;5070004;28;20528;-39
2021/12/01 04:47:51;;;;;;;9.55;3.30;;;8.80;99.90;;;;;;5070354;28;20084;-38
2021/12/01 04:50:20;;;;;;;9.73;3.38;;;9.80;99.90;;;;;;5070009;28;20041;-38
2021/12/01 04:52:46;;;;;;;9.20;3.20;;;8.80;99.90;;;;;;5070093;28;20055;-38
2021/12/01 04:55:13;;;;;;;7.55;3.47;;;9.80;99.90;;;;;;5069862;28;20049;-39
2021/12/01 04:57:45;;;;;;;7.60;3.38;;;8.90;99.90;;;;;;5070032;28;20048;-38
2021/12/01 05:00:15;;;;;;;7.30;3.80;;;8.90;99.90;;;;;;5069773;28;20045;-38
2021/12/01 05:02:40;;;;;;;10.00;4.18;;;8.90;99.90;;;;;;5070322;28;20048;-38
2021/12/01 05:05:06;;;;;;;6.90;2.80;;;9.20;99.90;;;;;;5069961;28;20094;-39
2021/12/01 05:07:32;;;;;;;9.57;3.58;;;8.90;99.90;;;;;;5051716;28;20037;-39
2021/12/01 05:09:58;;;;;;;10.88;4.47;;;9.60;99.90;;;;;;5070211;28;20049;-38
2021/12/01 05:12:24;;;;;;;9.52;4.30;;;10.70;99.90;;;;;;5069743;28;20120;-39
2021/12/01 05:14:50;;;;;;;10.00;4.30;;;9.60;99.90;;;;;;5069732;28;20041;-39
2021/12/01 05:17:19;;;;;;;10.18;4.85;;;9.50;99.90;;;;;;5069545;28;20102;-39
2021/12/01 05:19:45;;;;;;;10.18;4.63;;;8.80;99.90;;;;;;5069556;28;20045;-39
2021/12/01 05:22:11;;;;;;;8.52;4.35;;;9.20;99.90;;;;;;5069540;28;20063;-39
2021/12/01 05:24:36;;;;;;;11.70;4.78;;;8.70;99.90;;;;;;5069565;28;20044;-39
2021/12/01 05:27:02;;;;;;;11.55;4.93;;;8.90;99.90;;;;;;5069742;28;20516;-39
2021/12/01 05:29:28;;;;;;;10.60;4.43;;;10.50;99.90;;;;;;5069294;28;20072;-39
2021/12/01 05:31:55;;;;;;;9.57;4.07;;;8.60;99.90;;;;;;5069688;28;20490;-39
2021/12/01 05:34:21;;;;;;;11.93;4.35;;;8.50;99.90;;;;;;5051370;28;20041;-39
2021/12/01 05:36:47;;;;;;;8.77;3.33;;;8.70;99.90;;;;;;5069209;28;20501;-39
2021/12/01 05:39:13;;;;;;;11.35;5.20;;;8.60;99.90;;;;;;5068983;28;20051;-39
2021/12/01 05:41:39;;;;;;;9.90;4.38;;;8.70;99.90;;;;;;5069298;28;20036;-39
2021/12/01 05:44:05;;;;;;;8.88;4.10;;;9.60;99.90;;;;;;5068439;28;20041;-40
2021/12/01 05:46:31;;;;;;;7.30;3.70;;;8.60;99.90;;;;;;5069073;28;20086;-39
2021/12/01 05:48:56;;;;;;;9.82;3.65;;;8.40;99.90;;;;;;5069131;28;20094;-39
2021/12/01 05:51:22;;;;;;;9.45;3.35;;;9.20;99.90;;;;;;5068718;28;20486;-39
2021/12/01 05:53:49;;;;;;;10.00;4.78;;;8.50;99.90;;;;;;5069015;28;20490;-39
2021/12/01 05:56:15;;;;;;;8.07;4.05;;;8.70;99.90;;;;;;5068874;28;20075;-39
2021/12/01 05:58:41;;;;;;;10.27;4.70;;;9.20;99.90;;;;;;5050317;28;20045;-39
2021/12/01 06:01:07;;;;;;;9.95;3.95;;;8.50;99.90;;;;;;5069049;28;20083;-39
2021/12/01 06:03:33;;;;;;;8.85;3.55;;;8.90;99.90;;;;;;5069019;28;20086;-40
2021/12/01 06:05:59;;;;;;;7.80;3.45;;;8.80;99.90;;;;;;5069177;28;20044;-39
2021/12/01 06:08:25;;;;;;;12.02;5.00;;;8.40;99.90;;;;;;5069047;28;20449;-39
2021/12/01 06:10:51;;;;;;;7.55;3.72;;;8.50;99.90;;;;;;5069270;28;20036;-40
2021/12/01 06:13:19;;;;;;;9.93;3.83;;;8.70;99.90;;;;;;5068770;28;20043;-40
2021/12/01 06:15:46;;;;;;;9.02;4.18;;;8.40;99.90;;;;;;5068674;28;20124;-40
2021/12/01 06:18:12;;;;;;;7.07;3.10;;;8.70;99.90;;;;;;5068113;28;20106;-39
2021/12/01 06:20:39;;;;;;;5.82;2.88;;;8.40;99.90;;;;;;5068712;28;20060;-40
2021/12/01 06:23:05;;;;;;;4.85;2.10;;;8.40;99.90;;;;;;5068838;28;20040;-40
2021/12/01 06:25:30;;;;;;;4.20;2.25;;;8.10;99.90;;;;;;5068374;28;20136;-40
2021/12/01 06:27:56;;;;;;;7.88;2.20;;;9.20;99.90;;;;;;5068560;28;20102;-40
2021/12/01 06:30:24;;;;;;;5.22;1.98;;;8.30;99.90;;;;;;5068053;28;20045;-40
2021/12/01 06:32:50;;;;;;;3.95;2.10;;;8.30;99.90;;;;;;5068611;28;20041;-40
2021/12/01 06:35:17;;;;;;;4.43;2.30;;;9.50;99.90;;;;;;5068271;28;20082;-40
2021/12/01 06:37:43;;;;;;;3.80;1.80;;;8.30;99.90;;;;;;5068829;28;20047;-40
2021/12/01 06:40:10;;;;;;;5.95;3.22;;;8.00;99.90;;;;;;5068629;28;20406;-40
2021/12/01 06:42:36;;;;;;;4.55;2.08;;;8.20;99.90;;;;;;5068359;28;20132;-40
2021/12/01 06:45:07;;;;;;;3.80;2.15;;;8.60;99.90;;;;;;5050477;28;20087;-40
2021/12/01 06:47:33;;;;;;;5.25;2.70;;;8.20;99.90;;;;;;5068193;28;20045;-40
2021/12/01 06:49:59;;;;;;;5.95;2.83;;;8.30;99.90;;;;;;5068629;28;20098;-40
2021/12/01 06:52:29;;;;;;;5.72;3.03;;;8.20;99.90;;;;;;5068130;28;20043;-40
2021/12/01 06:54:56;;;;;;;6.72;3.50;;;8.00;99.90;;;;;;5070596;28;20119;-40
2021/12/01 06:57:22;;;;;;;7.22;3.85;;;7.90;99.90;;;;;;5054108;28;20051;-41
2021/12/01 06:59:47;;;;;;;7.38;3.15;;;8.10;99.90;;;;;;5053915;28;20053;-40
2021/12/01 07:02:13;;;;;;;5.25;2.55;;;8.10;99.90;;;;;;5054269;28;20080;-41
2021/12/01 07:04:39;;;;;;;7.00;4.10;;;8.10;99.90;;;;;;5072180;28;20414;-40
2021/12/01 07:07:04;;;;;;;5.88;2.65;;;8.10;99.90;;;;;;5072769;28;20036;-40
2021/12/01 07:09:30;;;;;;;4.50;2.45;;;8.20;99.90;;;;;;5072514;28;20052;-40
2021/12/01 07:11:56;;;;;;;5.60;3.03;;;8.40;99.90;;;;;;5072465;28;20407;-40
2021/12/01 07:14:22;;;;;;;5.43;2.67;;;8.70;99.90;;;;;;5071701;28;20482;-40
2021/12/01 07:16:48;;;;;;;4.60;2.63;;;8.10;99.90;;;;;;5071819;28;20058;-40
2021/12/01 07:19:14;;;;;;;6.35;3.47;;;8.10;99.90;;;;;;5071482;28;20083;-40
2021/12/01 07:21:40;;;;;;;5.93;3.03;;;8.70;99.90;;;;;;5071779;28;20517;-41
2021/12/01 07:24:06;;;;;;;5.55;3.17;;;8.00;99.90;;;;;;5071879;28;20041;-41
2021/12/01 07:26:32;;;;;;;6.40;2.38;;;8.10;99.90;;;;;;5071878;28;20048;-40
2021/12/01 07:28:59;;;;;;;6.82;2.78;;;8.50;99.90;;;;;;5072066;28;20036;-41
2021/12/01 07:31:24;;;;;;;5.32;2.42;;;7.90;99.90;;;;;;5071650;28;20089;-42
2021/12/01 07:33:50;;;;;;;4.22;2.40;;;7.80;99.90;;;;;;5071865;28;20045;-40
2021/12/01 07:36:17;;;;;;;4.97;2.90;;;8.10;99.90;;;;;;5071133;28;20067;-40
2021/12/01 07:38:42;;;;;;;3.97;1.90;;;8.00;99.90;;;;;;5068444;28;20036;-41
2021/12/01 07:41:08;;;;;;;5.70;2.60;;;8.00;99.90;;;;;;5071345;28;20039;-40
2021/12/01 07:43:34;;;;;;;5.65;2.72;;;8.00;99.90;;;;;;5071072;28;20040;-40
2021/12/01 07:46:01;;;;;;;5.60;2.75;;;8.20;99.90;;;;;;5053296;28;20485;-44
2021/12/01 07:48:27;;;;;;;5.68;3.20;;;7.70;99.90;;;;;;5071195;28;20041;-41
2021/12/01 07:50:53;;;;;;;8.32;3.47;;;8.90;99.90;;;;;;5071120;28;20044;-40
2021/12/01 07:53:19;;;;;;;5.82;2.92;;;8.40;99.90;;;;;;5071725;28;20158;-40
2021/12/01 07:55:45;;;;;;;6.38;4.00;;;8.70;99.90;;;;;;5071081;28;20036;-41
2021/12/01 07:58:10;;;;;;;6.75;3.20;;;8.00;99.90;;;;;;5071393;28;20044;-41
2021/12/01 08:00:37;;;;;;;6.50;3.13;;;8.10;99.90;;;;;;5070796;28;20953;-43
2021/12/01 08:03:03;;;;;;;8.40;3.75;;;8.00;99.90;;;;;;5071531;28;20075;-41
2021/12/01 08:05:29;;;;;;;5.97;2.88;;;8.10;99.90;;;;;;5069672;28;20044;-44
2021/12/01 08:07:56;;;;;;;7.20;3.35;;;8.00;99.90;;;;;;5071403;28;20049;-42
2021/12/01 08:10:22;;;;;;;7.97;4.28;;;8.40;99.90;;;;;;5070592;28;20049;-44
2021/12/01 08:12:47;;;;;;;6.15;3.25;;;8.10;99.90;;;;;;5070559;28;20044;-42
2021/12/01 08:15:13;;;;;;;9.50;4.28;;;8.10;99.90;;;;;;5070943;28;20086;-41
2021/12/01 08:17:39;;;;;;;9.25;4.68;;;8.00;99.90;;;;;;5070493;28;20068;-42
2021/12/01 08:20:06;;;;;;;9.45;4.93;;;8.10;99.90;;;;;;5070748;28;20048;-43
2021/12/01 08:22:31;;;;;;;7.18;4.70;;;8.10;99.90;;;;;;5069787;28;20072;-45
2021/12/01 08:24:57;;;;;;;7.95;4.75;;;8.10;99.90;;;;;;5069931;28;20080;-43
2021/12/01 08:27:27;;;;;;;8.82;5.18;;;8.10;99.90;;;;;;5070254;28;20044;-42
2021/12/01 08:29:53;;;;;;;8.90;3.92;;;8.00;99.90;;;;;;5070665;28;20451;-42
2021/12/01 08:32:19;;;;;;;10.55;4.90;;;8.20;99.90;;;;;;5070045;28;20106;-43
2021/12/01 08:34:49;;;;;;;7.82;4.90;;;8.20;99.90;;;;;;5069406;28;20037;-42
2021/12/01 08:37:18;;;;;;;8.82;4.53;;;8.10;99.90;;;;;;5053099;28;20098;-43
2021/12/01 08:39:48;;;;;;;6.75;3.88;;;8.00;99.90;;;;;;5070030;28;20048;-42
2021/12/01 08:42:20;;;;;;;9.43;4.30;;;9.20;99.90;;;;;;5070425;28;20040;-43
2021/12/01 08:44:46;;;;;;;6.45;4.07;;;8.20;99.90;;;;;;5069927;28;20119;-42
2021/12/01 08:47:14;;;;;;;9.63;4.75;;;8.70;99.90;;;;;;5070248;28;20435;-42
2021/12/01 08:49:40;;;;;;;12.65;4.72;;;8.50;99.90;;;;;;5064061;28;20054;-42
2021/12/01 08:52:06;;;;;;;8.40;4.70;;;8.20;99.90;;;;;;5070217;28;20272;-41
2021/12/01 08:54:32;;;;;;;8.77;5.00;;;8.20;99.90;;;;;;5051595;28;20510;-41
2021/12/01 08:56:58;;;;;;;10.52;4.78;;;8.20;99.90;;;;;;5069715;28;20080;-42
2021/12/01 08:59:24;;;;;;;8.80;3.78;;;8.20;99.90;;;;;;5069421;28;20085;-41
2021/12/01 09:01:50;;;;;;;7.65;3.30;;;8.30;99.90;;;;;;5069185;28;20037;-43
2021/12/01 09:04:17;;;;;;;6.38;1.70;;;8.40;99.90;;;;;;5069731;28;20310;-42
2021/12/01 09:06:48;;;;;;;9.00;2.03;;;9.00;99.90;;;;;;5069175;28;20417;-42
2021/12/01 09:09:20;;;;;;;7.57;1.98;;;8.10;99.90;;;;;;5066574;28;20500;-41
2021/12/01 09:11:48;;;;;;;6.00;1.85;;;8.00;99.90;;;;;;5068425;28;20040;-41
2021/12/01 09:14:14;;;;;;;9.60;1.50;;;8.80;99.90;;;;;;5068513;28;20032;-42
2021/12/01 09:16:43;;;;;;;3.60;0.80;;;8.00;99.90;;;;;;5068792;28;20474;-42
2021/12/01 09:19:09;;;;;;;9.98;1.27;;;8.10;99.90;;;;;;5067088;28;20052;-41
2021/12/01 09:21:35;;;;;;;6.90;0.75;;;8.90;99.90;;;;;;5068938;28;20032;-41
2021/12/01 09:24:03;;;;;;;10.25;1.40;;;8.10;99.90;;;;;;5069048;28;20545;-41
2021/12/01 09:26:28;;;;;;;9.73;1.42;;;7.80;99.90;;;;;;5069286;28;20107;-42
2021/12/01 09:28:54;;;;;;;11.07;1.92;;;8.10;99.90;;;;;;5051025;28;20111;-42
2021/12/01 09:31:20;;;;;;;8.38;1.30;;;8.10;99.90;;;;;;5069310;28;20474;-41
2021/12/01 09:33:46;;;;;;;7.68;0.95;;;8.10;99.90;;;;;;5069219;28;20556;-42
2021/12/01 09:36:13;;;;;;;10.02;2.05;;;8.10;99.90;;;;;;5069001;28;20072;-42
2021/12/01 09:38:38;;;;;;;11.10;0.80;;;8.10;99.90;;;;;;5068901;28;20028;-42
2021/12/01 09:41:04;;;;;;;13.00;1.33;;;7.90;99.90;;;;;;5069018;28;20089;-41
2021/12/01 09:43:31;;;;;;;10.77;0.90;;;8.10;99.90;;;;;;5050728;28;20044;-43
2021/12/01 09:46:00;;;;;;;3.70;0.77;;;8.70;99.90;;;;;;5068604;28;20044;-43
2021/12/01 09:48:28;;;;;;;11.95;1.48;;;8.10;99.90;;;;;;5069101;28;20052;-41
2021/12/01 09:50:54;;;;;;;12.13;1.15;;;8.40;99.90;;;;;;5068713;28;20044;-42
2021/12/01 09:53:19;;;;;;;6.50;0.68;;;8.10;99.90;;;;;;5068925;28;20040;-41
2021/12/01 09:55:46;;;;;;;7.88;0.70;;;8.00;99.90;;;;;;5069009;28;20044;-42
2021/12/01 09:58:20;;;;;;;12.48;0.70;;;7.90;99.90;;;;;;5069309;28;20040;-41
2021/12/01 10:00:50;;;;;;;11.23;1.10;;;7.90;99.90;;;;;;5068831;28;20495;-41
2021/12/01 10:03:16;;;;;;;9.27;0.40;;;8.20;99.90;;;;;;5034283;28;20644;-43
2021/12/01 10:06:09;;;;;;;7.20;0.40;;;8.40;99.90;;;;;;4977391;28;20049;-43
2021/12/01 10:08:39;;;;;;;6.10;0.45;;;7.90;99.90;;;;;;5027886;28;20052;-44
2021/12/01 10:11:07;;;;;;;9.07;0.45;;;7.90;99.90;;;;;;5048815;28;20098;-43
2021/12/01 10:13:37;;;;;;;5.40;0.35;;;7.60;99.90;;;;;;5049129;28;20045;-43
2021/12/01 10:16:05;;;;;;;9.73;0.50;;;7.90;99.90;;;;;;5048841;28;20043;-48
2021/12/01 10:18:37;;;;;;;7.45;0.52;;;7.90;99.90;;;;;;5048833;28;20118;-44
2021/12/01 10:21:18;;;;;;;8.88;0.63;;;8.00;99.90;;;;;;5048699;28;20084;-40
2021/12/01 10:23:49;;;;;;;16.98;1.90;;;8.00;99.90;;;;;;5048252;28;20091;-39
2021/12/01 10:26:28;;;;;;;8.77;0.50;;;8.00;99.90;;;;;;5048402;28;20407;-40
2021/12/01 10:28:59;;;;;;;11.15;0.38;;;8.00;99.90;;;;;;5047843;28;20056;-40
2021/12/01 10:31:33;;;;;;;16.60;1.05;;;7.90;99.90;;;;;;5048405;28;20045;-40
2021/12/01 10:34:21;;;;;;;8.73;0.77;;;8.90;99.90;;;;;;5047446;28;20041;-40
2021/12/01 10:37:09;;;;;;;9.38;1.35;;;8.10;99.90;;;;;;5048117;28;20091;-40
2021/12/01 10:39:36;;;;;;;14.15;1.38;;;8.20;99.90;;;;;;5029375;28;20059;-43
2021/12/01 10:42:04;;;;;;;9.00;0.73;;;8.30;99.90;;;;;;5030032;28;20130;-46
2021/12/01 10:44:30;;;;;;;13.73;0.55;;;8.10;99.90;;;;;;5048346;28;20052;-46
2021/12/01 10:46:56;;;;;;;10.77;0.77;;;7.90;99.90;;;;;;5047850;28;20511;-49
2021/12/01 10:49:42;;;;;;;7.93;0.80;;;8.00;99.90;;;;;;5030032;28;20124;-46
2021/12/01 10:52:38;;;;;;;13.95;1.27;;;7.80;99.90;;;;;;5048307;28;20072;-38
2021/12/01 10:55:11;;;;;;;2.63;0.20;;;8.10;99.90;;;;;;5048327;28;20502;-40
2021/12/01 10:57:43;;;;;;;10.85;0.73;;;8.20;99.90;;;;;;5048264;28;20033;-40
2021/12/01 11:00:22;;;;;;;6.15;0.55;;;8.30;99.90;;;;;;5048806;28;20084;-41
2021/12/01 11:02:48;;;;;;;7.38;0.63;;;9.10;99.90;;;;;;5047486;28;20573;-43
2021/12/01 11:05:34;;;;;;;10.70;1.63;;;8.30;99.90;;;;;;5027139;28;20059;-39
2021/12/01 11:08:12;;;;;;;12.35;1.35;;;7.90;99.90;;;;;;5067348;28;20075;-43
2021/12/01 11:10:38;;;;;;;12.23;0.75;;;7.90;99.90;;;;;;5067941;28;20049;-51
2021/12/01 11:13:05;;;;;;;11.07;0.60;;;7.90;99.90;;;;;;5068144;28;20038;-36
2021/12/01 11:15:34;;;;;;;8.60;0.70;;;7.90;99.90;;;;;;5068087;28;20052;-37
2021/12/01 11:18:01;;;;;;;7.70;0.52;;;7.80;99.90;;;;;;5068066;28;20136;-38
2021/12/01 11:20:46;;;;;;;12.07;1.23;;;7.80;99.90;;;;;;5068181;28;20059;-44
2021/12/01 11:23:27;;;;;;;11.90;0.50;;;7.80;99.90;;;;;;5068531;28;20131;-43
2021/12/01 11:26:13;;;;;;;9.35;1.17;;;7.70;99.90;;;;;;5068194;28;20044;-52
2021/12/01 11:28:42;;;;;;;11.90;0.95;;;7.70;99.90;;;;;;5067919;28;20051;-46
2021/12/01 11:31:36;;;;;;;9.95;1.50;;;7.90;99.90;;;;;;5067663;28;20037;-42
2021/12/01 11:34:16;;;;;;;9.27;1.02;;;8.50;99.90;;;;;;5044636;28;20147;-41
2021/12/01 11:36:46;;;;;;;6.35;0.93;;;7.80;99.90;;;;;;5067910;28;20044;-42
2021/12/01 11:39:18;;;;;;;9.23;0.75;;;8.80;99.90;;;;;;5067951;28;20573;-43
2021/12/01 11:41:45;;;;;;;12.10;0.60;;;7.80;99.90;;;;;;5069141;28;20066;-41
2021/12/01 11:44:13;;;;;;;10.05;0.55;;;8.20;99.90;;;;;;5068418;28;20052;-44
2021/12/01 11:46:39;;;;;;;14.43;1.50;;;7.70;99.90;;;;;;5070900;28;20080;-45
2021/12/01 11:49:14;;;;;;;13.73;0.70;;;8.40;99.90;;;;;;5071533;28;20040;-45
2021/12/01 11:51:44;;;;;;;10.50;2.53;;;7.70;99.90;;;;;;5071058;28;20914;-44
2021/12/01 11:54:12;;;;;;;5.50;0.40;;;8.60;99.90;;;;;;5052926;28;20045;-50
2021/12/01 11:56:47;;;;;;;11.85;2.17;;;8.90;99.90;;;;;;5070783;28;20040;-43
2021/12/01 11:59:16;;;;;;;8.82;1.13;;;8.90;99.90;;;;;;5070999;28;20041;-39
2021/12/01 12:01:54;;;;;;;9.82;1.13;;;7.70;99.90;;;;;;5070785;28;20041;-40
2021/12/01 12:04:22;;;;;;;15.52;1.02;;;7.90;99.90;;;;;;5051600;28;20053;-39
2021/12/01 12:07:10;;;;;;;12.18;1.48;;;7.60;99.90;;;;;;5071197;28;20115;-40
2021/12/01 12:09:38;;;;;;;15.00;2.40;;;7.50;99.90;;;;;;5070035;28;20117;-41
2021/12/01 12:12:14;;;;;;;12.55;0.82;;;8.00;99.90;;;;;;5070667;28;20135;-41
2021/12/01 12:14:45;;;;;;;11.75;1.65;;;7.50;99.90;;;;;;5070937;28;20048;-45
2021/12/01 12:17:32;;;;;;;16.92;1.48;;;8.20;99.90;;;;;;5070470;28;20190;-45
2021/12/01 12:20:23;;;;;;;20.15;1.60;;;7.60;99.90;;;;;;5070598;28;20514;-43
2021/12/01 12:22:49;;;;;;;8.07;2.15;;;7.50;99.90;;;;;;5070996;28;20194;-45
2021/12/01 12:25:49;;;;;;;23.15;2.28;;;7.20;99.90;;;;;;5070697;28;20123;-47
2021/12/01 12:28:25;;;;;;;18.15;3.13;;;7.80;99.90;;;;;;5059519;28;20052;-44
2021/12/01 12:30:53;;;;;;;14.57;1.60;;;7.50;99.90;;;;;;5070765;28;20127;-43
2021/12/01 12:33:30;;;;;;;19.17;2.28;;;7.40;99.90;;;;;;5070253;28;20379;-44
2021/12/01 12:36:03;;;;;;;14.95;1.42;;;8.10;99.90;;;;;;5055564;28;20049;-43
2021/12/01 12:38:29;;;;;;;;;;;7.90;99.90;;;;;;5071026;28;20136;-49
2021/12/01 12:41:10;;;;;;;14.20;1.05;;;8.00;99.90;;;;;;5052083;28;19927;-47
2021/12/01 12:43:39;;;;;;;22.50;2.78;;;7.90;99.90;;;;;;5051792;28;20486;-44
2021/12/01 12:46:12;;;;;;;15.13;1.83;;;7.70;99.90;;;;;;5069966;28;20048;-51
2021/12/01 12:48:50;;;;;;;9.82;0.70;;;7.60;99.90;;;;;;5070245;28;20073;-47
2021/12/01 12:51:30;;;;;;;8.02;0.98;;;8.10;99.90;;;;;;5051683;28;20066;-55
2021/12/01 12:54:06;;;;;;;13.23;1.02;;;7.20;99.90;;;;;;5069958;28;20117;-45
2021/12/01 12:56:34;;;;;;;12.35;1.52;;;6.90;99.90;;;;;;5070349;28;20094;-41
2021/12/01 12:59:19;;;;;;;8.75;1.30;;;7.10;99.90;;;;;;5069607;28;20049;-42
2021/12/01 13:01:45;;;;;;;17.60;2.30;;;7.00;99.90;;;;;;5069635;28;20052;-40
2021/12/01 13:04:52;;;;;;;14.65;1.52;;;7.10;99.90;;;;;;5050465;28;20056;-41